Time;durP1;ratioP1;P1;durP2;ratioP2;P2;SDS_P1;SDS_P2;PMS_P1;PMS_P2;Temp;Humidity;BMP_temperature;BMP_pressure;BME280_temperature;BME280_humidity;BME280_pressure;Samples;Min_cycle;Max_cycle;Signal;HPM_P1;HPM_P2
2021/04/15 00:00:54;;;;;;;6.95;3.50;;;3.60;99.90;;;;;;5046545;28;20086;-71
2021/04/15 00:03:26;;;;;;;7.28;3.33;;;3.60;99.90;;;;;;5035431;28;20025;-70
2021/04/15 00:05:52;;;;;;;7.50;3.40;;;3.50;99.90;;;;;;5046890;28;20048;-71
2021/04/15 00:08:19;;;;;;;19.55;4.57;;;3.50;99.90;;;;;;5048959;28;20040;-71
2021/04/15 00:10:49;;;;;;;12.48;3.63;;;3.50;99.90;;;;;;5030219;28;20025;-70
2021/04/15 00:13:19;;;;;;;5.22;3.53;;;3.50;99.90;;;;;;5045635;28;20028;-71
2021/04/15 00:15:44;;;;;;;11.10;3.90;;;3.50;99.90;;;;;;5049017;28;20383;-70
2021/04/15 00:18:10;;;;;;;10.73;3.63;;;3.50;99.90;;;;;;5046763;28;20021;-71
2021/04/15 00:20:36;;;;;;;7.30;3.55;;;3.50;99.90;;;;;;5049361;28;20088;-71
2021/04/15 00:23:01;;;;;;;10.55;3.20;;;3.50;99.90;;;;;;5048591;28;20025;-70
2021/04/15 00:25:27;;;;;;;7.18;3.58;;;3.50;99.90;;;;;;5029693;28;20037;-69
2021/04/15 00:27:54;;;;;;;9.82;3.22;;;3.50;99.90;;;;;;5047818;28;20096;-70
2021/04/15 00:30:21;;;;;;;5.85;3.17;;;3.40;99.90;;;;;;5045890;28;20065;-70
2021/04/15 00:32:47;;;;;;;16.42;3.72;;;3.40;99.90;;;;;;5035491;28;20016;-69
2021/04/15 00:35:13;;;;;;;14.45;4.28;;;3.50;99.90;;;;;;5044220;28;20198;-70
2021/04/15 00:37:39;;;;;;;11.75;3.55;;;3.50;99.90;;;;;;5046477;28;20126;-70
2021/04/15 00:40:09;;;;;;;7.95;3.30;;;3.50;99.90;;;;;;5047680;28;20613;-70
2021/04/15 00:42:36;;;;;;;7.57;3.92;;;3.50;99.90;;;;;;5039195;28;20035;-69
2021/04/15 00:45:28;;;;;;;12.60;3.63;;;3.50;99.90;;;;;;5050078;28;20420;-69
2021/04/15 00:48:01;;;;;;;9.95;3.08;;;3.50;99.90;;;;;;5042444;28;20406;-70
2021/04/15 00:50:34;;;;;;;10.45;3.75;;;3.50;99.90;;;;;;5047560;28;20151;-70
2021/04/15 00:53:05;;;;;;;5.63;3.40;;;3.50;99.90;;;;;;5046861;28;20399;-70
2021/04/15 00:55:32;;;;;;;9.75;3.47;;;3.60;99.90;;;;;;5046903;28;20051;-70
2021/04/15 00:58:00;;;;;;;7.95;3.13;;;3.60;99.90;;;;;;5034544;28;20029;-70
2021/04/15 01:00:29;;;;;;;11.65;4.13;;;3.60;99.90;;;;;;5039959;28;20483;-70
2021/04/15 01:02:56;;;;;;;13.07;4.00;;;3.60;99.90;;;;;;5048493;28;20055;-69
2021/04/15 01:05:27;;;;;;;9.05;3.63;;;3.50;99.90;;;;;;5041586;28;20112;-69
2021/04/15 01:07:53;;;;;;;6.50;3.20;;;3.60;99.90;;;;;;5039430;28;20055;-70
2021/04/15 01:10:22;;;;;;;13.55;3.92;;;3.50;99.90;;;;;;5024459;28;20108;-71
2021/04/15 01:13:11;;;;;;;7.75;3.65;;;3.50;99.90;;;;;;5039829;28;20029;-70
2021/04/15 01:15:55;;;;;;;8.10;3.83;;;3.40;99.90;;;;;;5036653;28;20021;-69
2021/04/15 01:18:26;;;;;;;18.30;4.20;;;3.40;99.90;;;;;;5034380;28;20053;-69
2021/04/15 01:21:37;;;;;;;11.35;4.80;;;3.40;99.90;;;;;;5031052;28;20033;-70
2021/04/15 01:24:25;;;;;;;10.20;3.83;;;3.40;99.90;;;;;;4965682;28;20059;-70
2021/04/15 01:27:30;;;;;;;7.90;4.28;;;3.40;99.90;;;;;;5044735;28;20066;-69
2021/04/15 01:30:13;;;;;;;13.32;4.85;;;3.40;99.90;;;;;;5042856;28;20702;-69
2021/04/15 01:32:44;;;;;;;12.18;4.80;;;3.50;99.90;;;;;;5038401;28;20144;-69
2021/04/15 01:35:16;;;;;;;18.63;4.25;;;3.50;99.90;;;;;;5020081;28;20026;-70
2021/04/15 01:37:53;;;;;;;13.63;4.22;;;3.50;99.90;;;;;;5041110;28;20029;-69
2021/04/15 01:40:25;;;;;;;12.07;4.78;;;3.50;99.90;;;;;;5046065;28;20021;-70
2021/04/15 01:43:14;;;;;;;13.35;5.40;;;3.50;99.90;;;;;;5041870;28;20057;-70
2021/04/15 01:45:46;;;;;;;13.57;4.80;;;3.50;99.90;;;;;;5036617;28;20040;-71
2021/04/15 01:48:18;;;;;;;11.93;5.05;;;3.50;99.90;;;;;;5040878;28;20140;-69
2021/04/15 01:51:13;;;;;;;10.18;4.80;;;3.50;99.90;;;;;;5042129;28;20059;-70
2021/04/15 01:54:12;;;;;;;20.13;4.82;;;3.50;99.90;;;;;;5043966;28;20036;-70
2021/04/15 01:56:37;;;;;;;12.18;4.57;;;3.50;99.90;;;;;;5022662;28;20246;-70
2021/04/15 01:59:11;;;;;;;11.95;4.95;;;3.50;99.90;;;;;;5040750;28;20021;-71
2021/04/15 02:01:48;;;;;;;11.52;4.97;;;3.50;99.90;;;;;;5043161;28;20066;-71
2021/04/15 02:04:19;;;;;;;11.82;5.07;;;3.40;99.90;;;;;;5045996;28;20082;-70
2021/04/15 02:06:49;;;;;;;12.98;4.10;;;3.40;99.90;;;;;;5044090;28;20441;-70
2021/04/15 02:09:17;;;;;;;9.00;5.00;;;3.30;99.90;;;;;;5027965;28;20028;-70
2021/04/15 02:11:57;;;;;;;12.90;5.05;;;3.10;99.90;;;;;;5045247;28;20395;-71
2021/04/15 02:14:27;;;;;;;10.90;4.90;;;3.00;99.90;;;;;;5033777;28;20089;-71
2021/04/15 02:16:54;;;;;;;11.02;4.22;;;3.00;99.90;;;;;;5046026;28;20055;-71
2021/04/15 02:19:39;;;;;;;11.27;5.03;;;3.00;99.90;;;;;;5042339;28;20017;-70
2021/04/15 02:22:11;;;;;;;10.25;4.68;;;2.90;99.90;;;;;;5035051;28;20044;-70
2021/04/15 02:24:45;;;;;;;13.15;4.63;;;2.90;99.90;;;;;;5031076;28;20024;-70
2021/04/15 02:27:20;;;;;;;15.73;4.82;;;3.00;99.90;;;;;;5036620;28;20096;-70
2021/04/15 02:29:55;;;;;;;12.38;4.85;;;3.00;99.90;;;;;;5032927;28;20104;-71
2021/04/15 02:32:58;;;;;;;12.90;4.63;;;2.90;99.90;;;;;;5040779;28;20039;-70
2021/04/15 02:35:29;;;;;;;16.02;4.78;;;3.00;99.90;;;;;;5027698;28;20057;-71
2021/04/15 02:37:58;;;;;;;11.32;5.35;;;3.00;99.90;;;;;;5028551;28;20029;-70
2021/04/15 02:40:27;;;;;;;13.25;4.75;;;3.00;99.90;;;;;;5047399;28;21519;-70
2021/04/15 02:42:57;;;;;;;14.27;5.03;;;2.90;99.90;;;;;;5051051;28;20078;-70
2021/04/15 02:45:33;;;;;;;13.23;5.30;;;2.90;99.90;;;;;;5050420;28;20028;-70
2021/04/15 02:48:09;;;;;;;8.43;4.53;;;2.90;99.90;;;;;;5048511;28;20025;-70
2021/04/15 02:50:36;;;;;;;10.05;4.93;;;2.90;99.90;;;;;;5049698;28;20029;-70
2021/04/15 02:53:16;;;;;;;16.58;5.15;;;3.00;99.90;;;;;;5048572;28;20706;-69
2021/04/15 02:55:55;;;;;;;13.60;4.95;;;3.00;99.90;;;;;;5048293;28;20025;-70
2021/04/15 02:58:31;;;;;;;13.07;4.97;;;2.90;99.90;;;;;;5048160;28;20029;-70
2021/04/15 03:00:59;;;;;;;14.40;4.60;;;2.80;99.90;;;;;;5047953;28;20074;-69
2021/04/15 03:03:33;;;;;;;11.40;5.78;;;2.80;99.90;;;;;;5048730;28;20521;-70
2021/04/15 03:06:10;;;;;;;12.73;5.30;;;2.80;99.90;;;;;;5028147;28;20037;-70
2021/04/15 03:08:38;;;;;;;9.15;5.45;;;2.80;99.90;;;;;;5048572;28;20036;-69
2021/04/15 03:11:22;;;;;;;15.82;5.63;;;2.80;99.90;;;;;;5046505;28;20036;-69
2021/04/15 03:13:56;;;;;;;11.30;5.55;;;2.70;99.90;;;;;;5050291;28;20083;-69
2021/04/15 03:16:26;;;;;;;15.40;5.10;;;2.60;99.90;;;;;;5049056;28;20029;-70
2021/04/15 03:19:06;;;;;;;14.35;5.47;;;2.60;99.90;;;;;;5048037;28;20090;-69
2021/04/15 03:22:07;;;;;;;10.68;5.07;;;2.60;99.90;;;;;;5047238;28;20057;-71
2021/04/15 03:24:40;;;;;;;12.98;5.43;;;2.70;99.90;;;;;;5046969;28;20040;-70
2021/04/15 03:27:09;;;;;;;15.05;5.65;;;2.70;99.90;;;;;;5048342;28;20024;-70
2021/04/15 03:29:45;;;;;;;13.95;5.55;;;2.70;99.90;;;;;;5047309;28;20025;-69
2021/04/15 03:32:17;;;;;;;16.23;5.55;;;2.60;99.90;;;;;;5048086;28;21345;-69
2021/04/15 03:35:02;;;;;;;14.93;5.50;;;2.60;99.90;;;;;;5046970;28;20021;-70
2021/04/15 03:37:42;;;;;;;16.02;4.88;;;2.50;99.90;;;;;;5030370;28;20537;-70
2021/04/15 03:40:10;;;;;;;11.30;5.18;;;2.60;99.90;;;;;;5049143;28;20104;-70
2021/04/15 03:42:40;;;;;;;8.95;5.80;;;2.70;99.90;;;;;;5047139;28;20676;-69
2021/04/15 03:45:15;;;;;;;10.70;4.40;;;2.70;99.90;;;;;;5049286;28;20128;-70
2021/04/15 03:47:46;;;;;;;9.85;4.60;;;2.80;99.90;;;;;;5053921;28;20027;-69
2021/04/15 03:50:18;;;;;;;9.35;4.10;;;2.90;99.90;;;;;;5034022;28;20029;-71
2021/04/15 03:52:45;;;;;;;12.37;5.20;;;3.00;99.90;;;;;;5045719;28;20032;-69
2021/04/15 03:55:14;;;;;;;13.32;4.20;;;3.10;99.90;;;;;;5048063;28;20258;-69
2021/04/15 03:57:42;;;;;;;13.52;4.97;;;3.10;99.90;;;;;;5047603;28;20047;-70
2021/04/15 04:00:12;;;;;;;15.88;4.93;;;3.10;99.90;;;;;;5048047;28;20449;-69
2021/04/15 04:02:54;;;;;;;14.32;4.75;;;3.10;99.90;;;;;;5029507;28;20025;-70
2021/04/15 04:05:28;;;;;;;18.55;5.60;;;3.10;99.90;;;;;;5035277;28;20048;-71
2021/04/15 04:08:02;;;;;;;15.13;5.03;;;3.10;99.90;;;;;;5046814;28;20041;-70
2021/04/15 04:10:35;;;;;;;9.60;4.20;;;3.10;99.90;;;;;;5029609;28;20110;-70
2021/04/15 04:13:26;;;;;;;12.45;4.75;;;3.20;99.90;;;;;;5046527;28;20579;-69
2021/04/15 04:16:30;;;;;;;15.27;5.22;;;3.10;99.90;;;;;;5037440;28;20021;-67
2021/04/15 04:19:02;;;;;;;13.63;5.47;;;3.00;99.90;;;;;;5040527;28;20087;-67
2021/04/15 04:21:54;;;;;;;12.82;5.03;;;2.90;99.90;;;;;;5040276;28;20033;-68
2021/04/15 04:24:24;;;;;;;10.52;5.10;;;3.00;99.90;;;;;;5020000;28;20029;-68
2021/04/15 04:26:58;;;;;;;18.60;6.07;;;2.90;99.90;;;;;;5041040;28;20021;-68
2021/04/15 04:29:52;;;;;;;15.10;5.35;;;2.90;99.90;;;;;;5055482;28;20017;-67
2021/04/15 04:32:21;;;;;;;18.17;5.88;;;2.70;99.90;;;;;;5058284;28;20070;-68
2021/04/15 04:34:55;;;;;;;10.60;5.28;;;2.70;99.90;;;;;;5057673;28;20025;-67
2021/04/15 04:37:32;;;;;;;15.25;5.13;;;2.90;99.90;;;;;;5030455;28;20074;-68
2021/04/15 04:39:59;;;;;;;19.83;5.60;;;2.90;99.90;;;;;;5046461;28;20139;-68
2021/04/15 04:42:34;;;;;;;19.23;5.57;;;2.90;99.90;;;;;;5052499;28;20556;-68
2021/04/15 04:45:00;;;;;;;16.35;5.47;;;2.80;99.90;;;;;;5055239;28;20017;-68
2021/04/15 04:47:35;;;;;;;11.65;5.07;;;2.80;99.90;;;;;;5049421;28;20052;-68
2021/04/15 04:50:23;;;;;;;12.95;4.95;;;2.70;99.90;;;;;;5050727;28;20447;-67
2021/04/15 04:53:04;;;;;;;13.98;5.25;;;2.70;99.90;;;;;;5039888;28;20020;-68
2021/04/15 04:55:42;;;;;;;14.85;5.35;;;2.70;99.90;;;;;;5037332;28;20024;-67
2021/04/15 04:58:16;;;;;;;9.93;5.70;;;2.70;99.90;;;;;;5045038;28;20021;-67
2021/04/15 05:00:49;;;;;;;15.25;5.55;;;2.70;99.90;;;;;;5023909;28;20018;-68
2021/04/15 05:03:21;;;;;;;12.65;5.03;;;2.70;99.90;;;;;;5044090;28;20508;-67
2021/04/15 05:05:47;;;;;;;16.50;5.18;;;2.70;99.90;;;;;;5035911;28;20028;-69
2021/04/15 05:08:20;;;;;;;10.05;5.10;;;2.70;99.90;;;;;;5038161;28;20505;-68
2021/04/15 05:10:51;;;;;;;13.40;5.57;;;2.70;99.90;;;;;;5036082;28;20120;-69
2021/04/15 05:13:20;;;;;;;15.90;5.57;;;2.70;99.90;;;;;;5040767;28;20063;-68
2021/04/15 05:15:46;;;;;;;13.95;5.55;;;2.70;99.90;;;;;;5036531;28;20032;-69
2021/04/15 05:18:15;;;;;;;12.10;5.35;;;2.70;99.90;;;;;;5036043;28;20104;-69
2021/04/15 05:20:42;;;;;;;19.20;6.40;;;2.70;99.90;;;;;;5042565;28;20014;-68
2021/04/15 05:23:39;;;;;;;15.38;4.97;;;2.70;99.90;;;;;;5039039;28;20092;-68
2021/04/15 05:26:10;;;;;;;10.20;5.50;;;2.70;99.90;;;;;;5032489;28;20029;-70
2021/04/15 05:28:38;;;;;;;15.93;6.75;;;2.80;99.90;;;;;;5038537;28;20061;-69
2021/04/15 05:31:10;;;;;;;11.63;5.55;;;2.80;99.90;;;;;;5045910;28;20032;-68
2021/04/15 05:33:37;;;;;;;10.73;5.50;;;2.80;99.90;;;;;;5040788;28;20059;-69
2021/04/15 05:36:07;;;;;;;10.70;5.85;;;2.90;99.90;;;;;;5024594;28;20040;-69
2021/04/15 05:38:45;;;;;;;12.98;5.78;;;2.90;99.90;;;;;;5062795;23;20045;-66
2021/04/15 05:41:37;;;;;;;13.20;5.55;;;2.90;99.90;;;;;;5062098;28;20023;-64
2021/04/15 05:44:07;;;;;;;15.07;5.75;;;3.00;99.90;;;;;;5063637;28;20047;-65
2021/04/15 05:46:45;;;;;;;16.08;6.43;;;3.10;99.90;;;;;;5059335;28;20039;-64
2021/04/15 05:49:40;;;;;;;12.40;6.35;;;3.20;99.90;;;;;;5051759;28;20025;-66
2021/04/15 05:52:33;;;;;;;15.25;5.93;;;3.20;99.90;;;;;;5055862;28;20037;-65
2021/04/15 05:55:06;;;;;;;13.80;6.40;;;3.30;99.90;;;;;;5035231;28;20033;-65
2021/04/15 05:57:38;;;;;;;12.75;6.28;;;3.30;99.90;;;;;;5047374;28;20032;-64
2021/04/15 06:00:30;;;;;;;13.30;6.68;;;3.40;99.90;;;;;;5045986;28;20407;-65
2021/04/15 06:03:27;;;;;;;18.38;8.00;;;3.60;99.90;;;;;;5045247;28;20051;-65
2021/04/15 06:05:55;;;;;;;10.40;6.72;;;3.70;99.90;;;;;;5016544;28;20459;-64
2021/04/15 06:08:22;;;;;;;14.60;6.78;;;3.80;99.90;;;;;;5032355;28;20021;-66
2021/04/15 06:10:48;;;;;;;20.60;6.95;;;3.80;99.90;;;;;;5047292;28;20060;-64
2021/04/15 06:13:40;;;;;;;12.57;6.20;;;4.00;99.90;;;;;;5041081;28;20341;-64
2021/04/15 06:16:11;;;;;;;13.55;4.95;;;4.10;99.90;;;;;;5037427;28;20018;-64
2021/04/15 06:18:53;;;;;;;13.15;5.07;;;4.20;99.90;;;;;;5043573;28;20021;-63
2021/04/15 06:21:29;;;;;;;9.70;5.00;;;4.20;99.90;;;;;;5041774;28;20028;-66
2021/04/15 06:24:02;;;;;;;13.88;5.35;;;4.30;99.90;;;;;;5032311;28;20028;-64
2021/04/15 06:26:32;;;;;;;9.68;4.60;;;4.40;99.90;;;;;;5044783;28;20383;-64
2021/04/15 06:29:03;;;;;;;11.57;4.30;;;4.50;99.90;;;;;;5053116;28;20526;-63
2021/04/15 06:31:36;;;;;;;11.45;3.95;;;4.50;99.90;;;;;;5053169;28;20491;-64
2021/04/15 06:34:06;;;;;;;10.30;4.25;;;4.60;99.90;;;;;;5050915;28;20017;-64
2021/04/15 06:36:44;;;;;;;13.05;4.60;;;4.60;99.90;;;;;;5050159;28;20500;-65
2021/04/15 06:39:38;;;;;;;16.23;4.78;;;4.60;99.90;;;;;;5051731;28;20033;-65
2021/04/15 06:42:41;;;;;;;10.48;4.35;;;4.60;99.90;;;;;;5044298;28;20222;-64
2021/04/15 06:45:12;;;;;;;11.13;4.20;;;4.70;99.90;;;;;;5034173;28;20031;-65
2021/04/15 06:48:16;;;;;;;8.13;4.22;;;4.70;99.90;;;;;;5047304;28;20039;-63
2021/04/15 06:51:20;;;;;;;8.90;3.33;;;4.80;99.90;;;;;;5031188;28;20028;-64
2021/04/15 06:54:21;;;;;;;16.40;4.00;;;4.80;99.90;;;;;;5039672;28;20037;-63
2021/04/15 06:57:25;;;;;;;9.02;3.65;;;4.80;99.90;;;;;;5048735;28;20755;-65
2021/04/15 07:00:12;;;;;;;7.20;3.75;;;4.90;99.90;;;;;;5036299;28;20028;-65
2021/04/15 07:03:07;;;;;;;10.65;3.10;;;4.90;99.90;;;;;;5039256;28;20103;-64
2021/04/15 07:05:42;;;;;;;10.88;3.45;;;5.00;99.90;;;;;;5038536;28;20573;-63
2021/04/15 07:08:29;;;;;;;20.92;3.53;;;5.00;99.90;;;;;;5047653;28;20027;-63
2021/04/15 07:11:24;;;;;;;8.15;3.15;;;5.10;99.90;;;;;;5041013;28;20027;-65
2021/04/15 07:14:04;;;;;;;8.90;3.33;;;5.10;99.90;;;;;;5032594;28;20483;-64
2021/04/15 07:17:15;;;;;;;9.90;3.45;;;5.10;99.90;;;;;;5043631;28;20394;-64
2021/04/15 07:19:47;;;;;;;6.38;3.42;;;5.00;99.90;;;;;;5039946;28;20098;-63
2021/04/15 07:22:33;;;;;;;10.13;3.97;;;5.10;99.90;;;;;;5036430;28;20200;-63
2021/04/15 07:25:05;;;;;;;5.63;2.08;;;5.30;99.90;;;;;;5035060;28;20030;-62
2021/04/15 07:27:48;;;;;;;7.50;3.20;;;5.30;99.90;;;;;;5030471;28;20419;-63
2021/04/15 07:30:34;;;;;;;8.75;2.80;;;5.40;99.90;;;;;;5043297;28;20695;-63
2021/04/15 07:33:21;;;;;;;6.07;2.80;;;5.30;99.90;;;;;;4987770;28;20056;-65
2021/04/15 07:35:58;;;;;;;10.25;2.67;;;5.40;99.90;;;;;;5049250;28;20092;-63
2021/04/15 07:39:03;;;;;;;11.52;3.05;;;5.30;99.90;;;;;;5060688;28;20519;-64
2021/04/15 07:42:02;;;;;;;10.52;2.65;;;5.40;99.90;;;;;;5045098;28;20475;-64
2021/04/15 07:44:37;;;;;;;9.40;3.20;;;5.40;99.90;;;;;;5046494;28;20013;-61
2021/04/15 07:47:12;;;;;;;19.13;4.07;;;5.50;99.90;;;;;;5048723;28;20021;-65
2021/04/15 07:49:47;;;;;;;12.88;2.63;;;5.60;99.90;;;;;;5047958;28;20490;-63
2021/04/15 07:52:50;;;;;;;11.23;3.17;;;5.50;99.90;;;;;;5048196;28;20021;-63
2021/04/15 07:55:18;;;;;;;;;;;5.50;99.90;;;;;;5048558;28;20025;-64
2021/04/15 07:58:05;;;;;;;13.30;3.42;;;5.60;99.90;;;;;;5044128;28;19916;-63
2021/04/15 08:00:49;;;;;;;9.55;2.90;;;5.60;99.90;;;;;;5048218;28;20017;-66
2021/04/15 08:03:43;;;;;;;10.55;3.30;;;5.70;99.90;;;;;;5039298;28;20048;-63
2021/04/15 08:06:36;;;;;;;8.98;3.65;;;5.90;99.90;;;;;;5046075;28;20328;-64
2021/04/15 08:09:32;;;;;;;6.70;2.38;;;6.00;99.90;;;;;;5047775;28;20025;-64
2021/04/15 08:12:20;;;;;;;10.23;2.60;;;6.10;99.90;;;;;;5040389;28;20133;-64
2021/04/15 08:15:19;;;;;;;8.35;3.13;;;6.10;99.90;;;;;;5043994;28;20028;-64
2021/04/15 08:18:22;;;;;;;9.95;2.95;;;6.00;99.90;;;;;;5047370;28;20080;-65
2021/04/15 08:20:55;;;;;;;7.82;3.28;;;6.20;99.90;;;;;;5032822;28;20427;-63
2021/04/15 08:23:37;;;;;;;6.15;2.35;;;6.30;99.90;;;;;;5029572;28;20029;-62
2021/04/15 08:26:40;;;;;;;7.57;3.15;;;6.40;99.90;;;;;;5048531;28;20037;-63
2021/04/15 08:29:25;;;;;;;;;;;6.10;99.90;;;;;;5042156;28;20485;-65
2021/04/15 08:32:09;;;;;;;7.68;3.40;;;6.10;99.90;;;;;;5047987;28;19904;-63
2021/04/15 08:34:34;;;;;;;11.73;3.33;;;6.10;99.90;;;;;;5028683;28;20025;-64
2021/04/15 08:37:19;;;;;;;8.68;3.38;;;6.30;99.90;;;;;;5047039;28;20021;-63
2021/04/15 08:39:57;;;;;;;7.18;3.85;;;6.10;99.90;;;;;;5046315;28;20461;-61
2021/04/15 08:42:42;;;;;;;10.98;3.53;;;6.20;99.90;;;;;;5036662;28;20021;-62
2021/04/15 08:45:26;;;;;;;12.57;3.55;;;6.50;99.90;;;;;;5025187;28;20094;-63
2021/04/15 08:48:10;;;;;;;13.38;3.25;;;6.30;99.90;;;;;;5041877;28;20185;-64
2021/04/15 08:50:42;;;;;;;11.18;3.10;;;6.70;99.90;;;;;;5045317;28;20017;-64
2021/04/15 08:53:45;;;;;;;7.68;2.92;;;6.90;99.90;;;;;;5048418;28;20027;-64
2021/04/15 08:56:17;;;;;;;;;;;7.30;99.90;;;;;;5039607;28;20025;-62
2021/04/15 08:59:06;;;;;;;8.38;2.13;;;7.50;99.90;;;;;;5035612;28;20302;-61
2021/04/15 09:01:47;;;;;;;7.03;2.15;;;7.70;99.90;;;;;;5037479;28;20041;-63
2021/04/15 09:04:24;;;;;;;5.15;1.40;;;7.70;99.90;;;;;;5046206;28;20013;-63
2021/04/15 09:07:10;;;;;;;4.22;1.50;;;7.30;99.90;;;;;;5046128;28;20021;-65
2021/04/15 09:10:07;;;;;;;5.45;2.00;;;7.20;99.90;;;;;;5037285;28;20078;-64
2021/04/15 09:12:49;;;;;;;5.13;2.70;;;7.30;99.90;;;;;;5044354;28;20061;-65
2021/04/15 09:15:34;;;;;;;5.93;1.63;;;7.50;99.90;;;;;;5046116;28;20410;-63
2021/04/15 09:18:30;;;;;;;6.93;1.50;;;8.00;99.90;;;;;;5035605;28;20039;-63
2021/04/15 09:21:14;;;;;;;3.97;1.60;;;8.30;99.90;;;;;;5044000;28;20474;-65
2021/04/15 09:23:50;;;;;;;5.75;2.28;;;8.20;99.90;;;;;;5049148;28;20523;-63
2021/04/15 09:26:24;;;;;;;6.25;2.03;;;7.90;99.90;;;;;;5029554;28;20020;-65
2021/04/15 09:29:18;;;;;;;4.05;2.00;;;7.70;99.90;;;;;;5048905;28;20095;-64
2021/04/15 09:31:50;;;;;;;5.03;1.45;;;8.00;99.90;;;;;;5034846;28;20407;-66
2021/04/15 09:34:43;;;;;;;10.32;2.03;;;8.30;99.90;;;;;;5045960;28;20104;-65
2021/04/15 09:37:20;;;;;;;4.57;1.73;;;8.70;99.90;;;;;;5037666;28;20108;-63
2021/04/15 09:40:01;;;;;;;1.85;1.13;;;8.60;99.90;;;;;;5043177;28;20632;-64
2021/04/15 09:42:43;;;;;;;3.20;1.45;;;8.20;99.90;;;;;;5031151;28;20013;-64
2021/04/15 09:45:09;;;;;;;;;;;8.60;99.90;;;;;;5041421;28;20332;-65
2021/04/15 09:48:02;;;;;;;2.60;0.82;;;9.00;99.90;;;;;;5049258;28;20386;-65
2021/04/15 09:50:34;;;;;;;5.25;1.60;;;8.90;99.30;;;;;;5051041;28;20032;-64
2021/04/15 09:53:48;;;;;;;2.10;1.33;;;8.80;99.10;;;;;;5051409;28;20017;-63
2021/04/15 09:56:51;;;;;;;4.50;1.15;;;8.40;99.90;;;;;;5022814;28;20261;-67
2021/04/15 09:59:36;;;;;;;5.65;1.33;;;8.60;99.90;;;;;;5050581;28;20505;-66
2021/04/15 10:02:19;;;;;;;3.08;1.45;;;8.60;99.90;;;;;;5053369;28;20021;-66
2021/04/15 10:04:59;;;;;;;3.60;1.33;;;8.40;99.90;;;;;;5054882;28;20226;-63
2021/04/15 10:07:30;;;;;;;2.80;1.27;;;8.30;98.80;;;;;;5054886;28;20022;-63
2021/04/15 10:10:42;;;;;;;5.57;1.35;;;8.00;99.90;;;;;;5052004;28;20032;-62
2021/04/15 10:13:32;;;;;;;3.97;1.40;;;7.90;99.20;;;;;;5033265;28;20048;-62
2021/04/15 10:16:18;;;;;;;8.40;1.42;;;7.90;99.90;;;;;;5041184;28;20441;-64
2021/04/15 10:19:09;;;;;;;2.53;1.42;;;8.40;99.90;;;;;;5050256;28;20387;-63
2021/04/15 10:21:47;;;;;;;3.95;1.35;;;8.90;99.90;;;;;;5051402;28;20104;-65
2021/04/15 10:24:48;;;;;;;5.20;1.83;;;9.10;99.90;;;;;;5050844;28;20017;-63
2021/04/15 10:27:47;;;;;;;5.13;1.45;;;8.50;99.90;;;;;;5034605;28;20063;-63
2021/04/15 10:30:31;;;;;;;3.40;2.00;;;8.10;99.90;;;;;;5048668;28;20136;-64
2021/04/15 10:33:21;;;;;;;3.42;1.20;;;7.90;99.90;;;;;;5041584;28;20040;-63
2021/04/15 10:35:59;;;;;;;4.22;1.42;;;7.70;99.90;;;;;;5048227;28;20025;-64
2021/04/15 10:38:55;;;;;;;3.17;1.90;;;7.80;99.90;;;;;;5033088;28;20595;-64
2021/04/15 10:41:56;;;;;;;4.13;2.10;;;7.50;99.90;;;;;;5050123;28;20028;-63
2021/04/15 10:44:37;;;;;;;10.25;1.80;;;7.70;99.90;;;;;;5048794;28;20081;-64
2021/04/15 10:47:32;;;;;;;1.95;1.73;;;7.80;99.90;;;;;;5051460;28;20021;-63
2021/04/15 10:50:22;;;;;;;6.35;1.70;;;7.70;99.90;;;;;;5038661;28;20055;-63
2021/04/15 10:53:12;;;;;;;4.22;1.90;;;7.90;99.90;;;;;;5050753;28;20071;-64
2021/04/15 10:55:43;;;;;;;6.35;1.70;;;7.70;99.90;;;;;;5020105;28;20028;-63
2021/04/15 10:58:30;;;;;;;6.88;1.48;;;7.80;99.90;;;;;;5031962;28;20414;-63
2021/04/15 11:00:59;;;;;;;2.70;1.40;;;7.80;99.90;;;;;;5051496;28;20040;-63
2021/04/15 11:03:35;;;;;;;2.95;1.50;;;7.70;99.90;;;;;;5049162;28;20110;-65
2021/04/15 11:06:01;;;;;;;2.78;1.92;;;7.70;99.90;;;;;;5049770;28;20032;-62
2021/04/15 11:08:30;;;;;;;5.35;2.13;;;7.70;99.90;;;;;;5052114;28;20021;-63
2021/04/15 11:11:19;;;;;;;3.55;1.88;;;7.80;99.90;;;;;;5062769;28;20017;-63
2021/04/15 11:13:45;;;;;;;8.05;2.10;;;7.80;99.90;;;;;;5055273;28;20024;-63
2021/04/15 11:16:22;;;;;;;4.32;1.73;;;7.80;99.90;;;;;;5032169;28;20318;-65
2021/04/15 11:18:50;;;;;;;4.25;1.95;;;7.90;99.90;;;;;;5033996;28;20043;-65
2021/04/15 11:21:24;;;;;;;4.03;2.25;;;8.20;99.90;;;;;;5052165;28;20025;-64
2021/04/15 11:23:52;;;;;;;2.22;1.95;;;8.20;99.90;;;;;;5049494;28;20094;-64
2021/04/15 11:26:25;;;;;;;4.30;1.83;;;8.20;99.90;;;;;;5049182;28;20584;-64
2021/04/15 11:28:55;;;;;;;4.10;1.95;;;8.30;99.90;;;;;;5035767;28;20025;-64
2021/04/15 11:31:50;;;;;;;3.45;2.22;;;8.80;99.90;;;;;;5031070;28;20025;-62
2021/04/15 11:34:27;;;;;;;3.20;1.70;;;8.40;99.90;;;;;;5031152;28;20437;-64
2021/04/15 11:37:08;;;;;;;3.38;1.90;;;8.10;99.90;;;;;;5050213;28;20525;-63
2021/04/15 11:39:36;;;;;;;3.80;2.05;;;8.10;99.90;;;;;;5070518;22;20052;-65
2021/04/15 11:42:05;;;;;;;5.07;1.77;;;8.10;99.90;;;;;;5055715;28;20100;-65
2021/04/15 11:44:56;;;;;;;2.20;1.58;;;8.20;99.90;;;;;;5068816;28;20025;-66
2021/04/15 11:47:28;;;;;;;1.50;1.30;;;8.20;99.90;;;;;;5055134;28;20558;-66
2021/04/15 11:50:13;;;;;;;1.52;1.45;;;8.20;99.90;;;;;;5067482;28;20013;-65
2021/04/15 11:52:41;;;;;;;3.05;1.73;;;8.50;99.80;;;;;;5052146;28;20465;-65
2021/04/15 11:55:14;;;;;;;1.77;1.58;;;8.40;99.90;;;;;;5056424;28;20029;-66
2021/04/15 11:57:42;;;;;;;1.63;1.50;;;8.50;99.90;;;;;;5042609;28;20033;-64
2021/04/15 12:00:36;;;;;;;4.35;2.00;;;8.40;98.90;;;;;;5051553;28;20025;-65
2021/04/15 12:03:01;;;;;;;3.63;1.65;;;8.50;99.90;;;;;;5056485;28;20112;-64
2021/04/15 12:05:30;;;;;;;2.88;1.38;;;8.50;98.70;;;;;;5034830;28;20060;-64
2021/04/15 12:08:15;;;;;;;2.85;1.50;;;8.60;98.00;;;;;;5051537;28;20031;-64
2021/04/15 12:10:45;;;;;;;1.63;1.27;;;8.80;97.70;;;;;;5039048;28;20020;-64
2021/04/15 12:13:29;;;;;;;1.77;1.55;;;9.20;96.20;;;;;;5036578;28;20053;-63
2021/04/15 12:16:32;;;;;;;1.85;1.33;;;9.30;96.80;;;;;;5044356;28;20017;-65
2021/04/15 12:19:19;;;;;;;2.45;1.60;;;9.10;96.70;;;;;;5030126;28;20060;-64
2021/04/15 12:21:56;;;;;;;1.60;1.40;;;8.90;97.40;;;;;;5030420;28;20550;-64
2021/04/15 12:24:31;;;;;;;2.17;1.58;;;8.90;96.90;;;;;;5052642;28;20017;-66
2021/04/15 12:27:12;;;;;;;1.63;1.52;;;8.90;96.40;;;;;;5051083;28;20025;-65
2021/04/15 12:29:54;;;;;;;2.75;1.48;;;8.70;97.40;;;;;;5053677;28;20403;-64
2021/04/15 12:32:36;;;;;;;4.23;1.57;;;8.80;98.10;;;;;;5029053;28;20034;-65
2021/04/15 12:35:21;;;;;;;2.88;1.52;;;8.90;98.00;;;;;;5044494;28;20025;-64
2021/04/15 12:37:55;;;;;;;3.42;1.80;;;9.00;99.00;;;;;;5038696;28;20611;-64
2021/04/15 12:40:47;;;;;;;8.63;2.03;;;8.90;98.30;;;;;;5049871;28;20036;-65
2021/04/15 12:43:24;;;;;;;2.67;1.85;;;8.60;97.80;;;;;;5031842;28;20174;-66
2021/04/15 12:46:04;;;;;;;2.25;1.52;;;8.60;99.00;;;;;;5062129;28;20024;-66
2021/04/15 12:48:45;;;;;;;2.85;1.98;;;8.80;99.10;;;;;;5048798;28;20067;-65
2021/04/15 12:51:14;;;;;;;1.80;1.63;;;9.00;98.80;;;;;;5045490;28;20021;-64
2021/04/15 12:53:43;;;;;;;1.77;1.30;;;8.80;95.30;;;;;;5048498;28;20025;-65
2021/04/15 12:56:15;;;;;;;1.75;1.13;;;8.80;94.70;;;;;;5048568;28;20029;-66
2021/04/15 12:58:40;;;;;;;3.45;1.27;;;8.90;92.90;;;;;;5039394;28;20375;-66
2021/04/15 13:01:07;;;;;;;2.40;1.13;;;8.80;93.10;;;;;;5030060;28;20033;-64
2021/04/15 13:03:35;;;;;;;2.72;1.40;;;9.00;92.80;;;;;;5049401;28;20017;-64
2021/04/15 13:06:14;;;;;;;3.47;1.50;;;9.00;93.80;;;;;;5048531;28;20021;-66
2021/04/15 13:08:43;;;;;;;2.45;1.50;;;9.00;94.20;;;;;;5044785;28;20020;-64
2021/04/15 13:11:28;;;;;;;4.20;1.00;;;9.00;94.20;;;;;;5048116;28;20041;-65
2021/04/15 13:14:03;;;;;;;3.00;1.50;;;9.30;94.70;;;;;;5030839;28;20514;-64
2021/04/15 13:16:34;;;;;;;2.40;1.75;;;9.30;94.30;;;;;;5045233;28;20069;-65
2021/04/15 13:19:23;;;;;;;3.53;1.37;;;9.70;93.50;;;;;;5047753;28;20049;-66
2021/04/15 13:22:24;;;;;;;2.83;1.27;;;10.20;92.80;;;;;;5050030;28;20031;-64
2021/04/15 13:25:05;;;;;;;1.33;1.02;;;10.30;90.90;;;;;;5046096;28;20021;-65
2021/04/15 13:27:33;;;;;;;2.55;1.05;;;9.90;88.30;;;;;;5049985;28;20020;-65
2021/04/15 13:30:40;;;;;;;1.50;0.90;;;9.60;86.40;;;;;;5051348;28;20032;-65
2021/04/15 13:33:15;;;;;;;1.48;1.15;;;9.90;90.70;;;;;;5033322;28;20025;-64
2021/04/15 13:35:59;;;;;;;1.90;1.10;;;10.00;85.30;;;;;;5047464;28;20027;-64
2021/04/15 13:38:28;;;;;;;3.60;1.42;;;9.90;87.60;;;;;;5048090;28;20036;-66
2021/04/15 13:40:59;;;;;;;1.75;1.58;;;9.90;86.80;;;;;;5048111;28;20458;-64
2021/04/15 13:43:37;;;;;;;0.70;0.70;;;10.10;89.00;;;;;;5047055;28;20525;-64
2021/04/15 13:46:24;;;;;;;1.92;1.00;;;10.10;79.00;;;;;;5061777;28;20075;-65
2021/04/15 13:48:51;;;;;;;2.55;0.70;;;10.40;79.80;;;;;;5063466;28;20491;-63
2021/04/15 13:51:35;;;;;;;1.75;0.93;;;10.20;77.90;;;;;;5053374;28;20040;-64
2021/04/15 13:54:16;;;;;;;1.25;0.95;;;9.80;80.40;;;;;;5053079;28;20471;-66